sensor_id;sensor_type;location;lat;lon;timestamp;pressure;altitude;pressure_sealevel;temperature;humidity
14253;BME280;7210;51.502;10.722;2023-03-23T00:02:25;98730.50;;;9.93;89.14
14253;BME280;7210;51.502;10.722;2023-03-23T00:04:53;98728.03;;;10.03;88.71
14253;BME280;7210;51.502;10.722;2023-03-23T00:07:20;98729.88;;;10.24;87.91
14253;BME280;7210;51.502;10.722;2023-03-23T00:09:50;98720.06;;;10.41;87.32
14253;BME280;7210;51.502;10.722;2023-03-23T00:12:21;98712.91;;;10.63;86.56
14253;BME280;7210;51.502;10.722;2023-03-23T00:14:58;98686.63;;;10.78;85.68
14253;BME280;7210;51.502;10.722;2023-03-23T00:17:28;98692.00;;;10.88;85.52
14253;BME280;7210;51.502;10.722;2023-03-23T00:19:56;98686.97;;;11.13;84.89
14253;BME280;7210;51.502;10.722;2023-03-23T00:22:23;98675.97;;;11.31;83.91
14253;BME280;7210;51.502;10.722;2023-03-23T00:24:51;98660.16;;;11.41;83.40
14253;BME280;7210;51.502;10.722;2023-03-23T00:27:19;98651.97;;;11.42;83.26
14253;BME280;7210;51.502;10.722;2023-03-23T00:29:48;98648.31;;;11.53;82.45
14253;BME280;7210;51.502;10.722;2023-03-23T00:32:20;98630.94;;;11.57;81.76
14253;BME280;7210;51.502;10.722;2023-03-23T00:34:57;98624.22;;;11.50;81.83
14253;BME280;7210;51.502;10.722;2023-03-23T00:37:25;98614.94;;;11.42;81.86
14253;BME280;7210;51.502;10.722;2023-03-23T00:39:53;98623.59;;;11.33;82.04
14253;BME280;7210;51.502;10.722;2023-03-23T00:42:24;98609.81;;;11.31;81.53
14253;BME280;7210;51.502;10.722;2023-03-23T00:44:52;98621.47;;;11.30;82.05
14253;BME280;7210;51.502;10.722;2023-03-23T00:47:25;98634.34;;;11.21;82.40
14253;BME280;7210;51.502;10.722;2023-03-23T00:49:52;98631.69;;;11.17;82.34
14253;BME280;7210;51.502;10.722;2023-03-23T00:52:23;98631.47;;;11.23;82.13
14253;BME280;7210;51.502;10.722;2023-03-23T00:54:50;98627.03;;;11.33;81.49
14253;BME280;7210;51.502;10.722;2023-03-23T00:57:17;98621.00;;;11.38;81.30
14253;BME280;7210;51.502;10.722;2023-03-23T00:59:45;98623.63;;;11.38;81.50
14253;BME280;7210;51.502;10.722;2023-03-23T01:02:14;98630.22;;;11.35;81.65
14253;BME280;7210;51.502;10.722;2023-03-23T01:04:42;98648.22;;;11.38;81.66
14253;BME280;7210;51.502;10.722;2023-03-23T01:07:11;98637.91;;;11.37;81.52
14253;BME280;7210;51.502;10.722;2023-03-23T01:09:40;98633.41;;;11.37;81.41
14253;BME280;7210;51.502;10.722;2023-03-23T01:12:12;98644.81;;;11.38;81.54
14253;BME280;7210;51.502;10.722;2023-03-23T01:14:40;98631.53;;;11.33;81.28
14253;BME280;7210;51.502;10.722;2023-03-23T01:17:09;98638.78;;;11.47;80.81
14253;BME280;7210;51.502;10.722;2023-03-23T01:19:36;98627.38;;;11.47;80.67
14253;BME280;7210;51.502;10.722;2023-03-23T01:22:04;98636.66;;;11.49;80.87
14253;BME280;7210;51.502;10.722;2023-03-23T01:24:31;98641.69;;;11.46;81.01
14253;BME280;7210;51.502;10.722;2023-03-23T01:27:00;98649.88;;;11.44;81.18
14253;BME280;7210;51.502;10.722;2023-03-23T01:29:32;98654.34;;;11.39;81.63
14253;BME280;7210;51.502;10.722;2023-03-23T01:32:00;98666.50;;;11.35;81.80
14253;BME280;7210;51.502;10.722;2023-03-23T01:34:28;98669.16;;;11.40;81.40
14253;BME280;7210;51.502;10.722;2023-03-23T01:36:55;98652.25;;;11.46;80.98
14253;BME280;7210;51.502;10.722;2023-03-23T01:39:22;98659.16;;;11.47;81.16
14253;BME280;7210;51.502;10.722;2023-03-23T01:41:49;98661.25;;;11.45;81.20
14253;BME280;7210;51.502;10.722;2023-03-23T01:48:02;98697.41;;;11.61;81.42
14253;BME280;7210;51.502;10.722;2023-03-23T01:50:37;98713.88;;;11.68;81.39
14253;BME280;7210;51.502;10.722;2023-03-23T01:53:09;98718.41;;;11.77;81.19
14253;BME280;7210;51.502;10.722;2023-03-23T01:55:41;98712.38;;;11.87;81.39
14253;BME280;7210;51.502;10.722;2023-03-23T01:58:11;98707.56;;;11.79;81.80
14253;BME280;7210;51.502;10.722;2023-03-23T02:00:39;98735.81;;;11.68;80.49
14253;BME280;7210;51.502;10.722;2023-03-23T02:03:11;98732.78;;;11.55;83.73
14253;BME280;7210;51.502;10.722;2023-03-23T02:05:43;98746.50;;;11.47;84.28
14253;BME280;7210;51.502;10.722;2023-03-23T02:08:18;98756.72;;;11.38;85.19
14253;BME280;7210;51.502;10.722;2023-03-23T02:10:46;98773.34;;;11.29;85.79
14253;BME280;7210;51.502;10.722;2023-03-23T02:13:14;98783.88;;;11.24;86.30
14253;BME280;7210;51.502;10.722;2023-03-23T02:15:50;98785.44;;;11.20;86.68
14253;BME280;7210;51.502;10.722;2023-03-23T02:18:42;98792.50;;;11.14;87.21
14253;BME280;7210;51.502;10.722;2023-03-23T02:24:57;98797.41;;;11.01;88.73
14253;BME280;7210;51.502;10.722;2023-03-23T02:28:04;98790.22;;;10.97;89.29
14253;BME280;7210;51.502;10.722;2023-03-23T02:30:51;98786.72;;;10.91;90.10
14253;BME280;7210;51.502;10.722;2023-03-23T02:33:43;98792.19;;;10.85;90.78
14253;BME280;7210;51.502;10.722;2023-03-23T02:36:19;98789.75;;;10.78;91.66
14253;BME280;7210;51.502;10.722;2023-03-23T02:38:57;98781.75;;;10.73;92.31
14253;BME280;7210;51.502;10.722;2023-03-23T02:41:33;98782.25;;;10.70;93.06
14253;BME280;7210;51.502;10.722;2023-03-23T02:44:04;98790.69;;;10.67;93.60
14253;BME280;7210;51.502;10.722;2023-03-23T02:46:32;98782.16;;;10.65;94.18
14253;BME280;7210;51.502;10.722;2023-03-23T02:49:06;98776.19;;;10.70;94.20
14253;BME280;7210;51.502;10.722;2023-03-23T02:51:35;98767.00;;;10.77;94.21
14253;BME280;7210;51.502;10.722;2023-03-23T02:54:05;98751.50;;;10.86;93.65
14253;BME280;7210;51.502;10.722;2023-03-23T02:56:35;98729.91;;;10.99;92.62
14253;BME280;7210;51.502;10.722;2023-03-23T02:59:09;98715.75;;;11.10;92.28
14253;BME280;7210;51.502;10.722;2023-03-23T03:01:57;98704.41;;;11.14;92.25
14253;BME280;7210;51.502;10.722;2023-03-23T03:04:30;98699.38;;;11.13;92.01
14253;BME280;7210;51.502;10.722;2023-03-23T03:12:55;98684.63;;;11.21;91.73
14253;BME280;7210;51.502;10.722;2023-03-23T03:15:31;98678.56;;;11.26;91.46
14253;BME280;7210;51.502;10.722;2023-03-23T03:18:09;98689.44;;;11.29;91.28
14253;BME280;7210;51.502;10.722;2023-03-23T03:23:32;98683.09;;;11.30;91.25
14253;BME280;7210;51.502;10.722;2023-03-23T03:26:05;98669.88;;;11.30;91.03
14253;BME280;7210;51.502;10.722;2023-03-23T03:28:49;98661.19;;;11.35;90.87
14253;BME280;7210;51.502;10.722;2023-03-23T03:31:23;98668.03;;;11.31;91.08
14253;BME280;7210;51.502;10.722;2023-03-23T03:33:54;98659.00;;;11.27;91.00
14253;BME280;7210;51.502;10.722;2023-03-23T03:36:27;98663.81;;;11.30;90.77
14253;BME280;7210;51.502;10.722;2023-03-23T03:39:05;98657.97;;;11.28;90.78
14253;BME280;7210;51.502;10.722;2023-03-23T03:41:34;98663.00;;;11.29;91.04
14253;BME280;7210;51.502;10.722;2023-03-23T03:44:01;98663.50;;;11.26;91.18
14253;BME280;7210;51.502;10.722;2023-03-23T03:46:29;98679.09;;;11.23;91.30
14253;BME280;7210;51.502;10.722;2023-03-23T03:48:57;98679.59;;;11.20;91.63
14253;BME280;7210;51.502;10.722;2023-03-23T03:51:26;98692.28;;;11.18;91.64
14253;BME280;7210;51.502;10.722;2023-03-23T03:53:54;98680.91;;;11.18;91.63
14253;BME280;7210;51.502;10.722;2023-03-23T03:56:24;98684.59;;;11.17;91.69
14253;BME280;7210;51.502;10.722;2023-03-23T03:59:04;98701.63;;;11.30;91.27
14253;BME280;7210;51.502;10.722;2023-03-23T04:01:49;98689.50;;;11.34;91.14
14253;BME280;7210;51.502;10.722;2023-03-23T04:04:20;98693.22;;;11.38;90.83
14253;BME280;7210;51.502;10.722;2023-03-23T04:06:48;98686.38;;;11.42;90.61
14253;BME280;7210;51.502;10.722;2023-03-23T04:09:16;98678.97;;;11.39;90.68
14253;BME280;7210;51.502;10.722;2023-03-23T04:11:47;98682.94;;;11.42;90.49
14253;BME280;7210;51.502;10.722;2023-03-23T04:14:35;98694.03;;;11.39;90.98
14253;BME280;7210;51.502;10.722;2023-03-23T04:17:02;98693.75;;;11.35;91.45
14253;BME280;7210;51.502;10.722;2023-03-23T04:19:29;98701.91;;;11.34;91.69
14253;BME280;7210;51.502;10.722;2023-03-23T04:21:59;98700.84;;;11.30;92.34
14253;BME280;7210;51.502;10.722;2023-03-23T04:24:28;98722.50;;;11.27;92.74
14253;BME280;7210;51.502;10.722;2023-03-23T04:27:00;98725.13;;;11.22;93.35
14253;BME280;7210;51.502;10.722;2023-03-23T04:29:29;98720.88;;;11.21;93.72
14253;BME280;7210;51.502;10.722;2023-03-23T04:32:19;98722.41;;;11.17;94.23
14253;BME280;7210;51.502;10.722;2023-03-23T04:34:51;98730.34;;;11.17;94.56
14253;BME280;7210;51.502;10.722;2023-03-23T04:37:23;98730.59;;;11.15;95.03
14253;BME280;7210;51.502;10.722;2023-03-23T04:39:55;98734.00;;;11.11;95.56
14253;BME280;7210;51.502;10.722;2023-03-23T04:42:31;98735.03;;;11.05;96.24
14253;BME280;7210;51.502;10.722;2023-03-23T04:45:22;98731.03;;;11.03;96.80
14253;BME280;7210;51.502;10.722;2023-03-23T04:47:54;98744.50;;;11.01;97.17
14253;BME280;7210;51.502;10.722;2023-03-23T04:50:35;98736.50;;;10.96;97.60
14253;BME280;7210;51.502;10.722;2023-03-23T04:53:14;98745.50;;;10.95;98.11
14253;BME280;7210;51.502;10.722;2023-03-23T04:55:45;98740.72;;;10.92;98.32
14253;BME280;7210;51.502;10.722;2023-03-23T04:58:17;98747.06;;;10.91;98.83
14253;BME280;7210;51.502;10.722;2023-03-23T05:01:05;98749.16;;;10.89;99.30
14253;BME280;7210;51.502;10.722;2023-03-23T05:03:40;98755.72;;;10.87;99.82
14253;BME280;7210;51.502;10.722;2023-03-23T05:06:08;98753.09;;;10.87;100.00
14253;BME280;7210;51.502;10.722;2023-03-23T05:08:36;98752.03;;;10.88;100.00
14253;BME280;7210;51.502;10.722;2023-03-23T05:11:08;98755.97;;;10.85;100.00
14253;BME280;7210;51.502;10.722;2023-03-23T05:13:40;98755.22;;;10.90;100.00
14253;BME280;7210;51.502;10.722;2023-03-23T05:16:08;98747.53;;;10.88;100.00
14253;BME280;7210;51.502;10.722;2023-03-23T05:18:38;98743.34;;;10.92;100.00
14253;BME280;7210;51.502;10.722;2023-03-23T05:21:08;98728.25;;;10.88;100.00
14253;BME280;7210;51.502;10.722;2023-03-23T05:23:39;98732.94;;;10.81;100.00
14253;BME280;7210;51.502;10.722;2023-03-23T05:26:16;98730.53;;;10.79;100.00
14253;BME280;7210;51.502;10.722;2023-03-23T05:28:45;98731.03;;;10.76;100.00
14253;BME280;7210;51.502;10.722;2023-03-23T05:31:22;98728.81;;;10.68;100.00
14253;BME280;7210;51.502;10.722;2023-03-23T05:33:50;98722.38;;;10.59;100.00
14253;BME280;7210;51.502;10.722;2023-03-23T05:36:28;98721.81;;;10.57;100.00
14253;BME280;7210;51.502;10.722;2023-03-23T05:39:11;98733.94;;;10.53;100.00
14253;BME280;7210;51.502;10.722;2023-03-23T05:41:59;98723.81;;;10.45;100.00
14253;BME280;7210;51.502;10.722;2023-03-23T05:44:41;98716.38;;;10.42;100.00
14253;BME280;7210;51.502;10.722;2023-03-23T05:47:09;98716.31;;;10.37;100.00
14253;BME280;7210;51.502;10.722;2023-03-23T05:49:41;98702.06;;;10.38;100.00
14253;BME280;7210;51.502;10.722;2023-03-23T05:52:11;98712.63;;;10.38;100.00
14253;BME280;7210;51.502;10.722;2023-03-23T05:54:39;98698.06;;;10.36;100.00
14253;BME280;7210;51.502;10.722;2023-03-23T05:57:07;98690.38;;;10.34;100.00
14253;BME280;7210;51.502;10.722;2023-03-23T05:59:45;98687.72;;;10.34;100.00
14253;BME280;7210;51.502;10.722;2023-03-23T06:02:19;98688.25;;;10.31;100.00
14253;BME280;7210;51.502;10.722;2023-03-23T06:04:47;98682.41;;;10.29;100.00
14253;BME280;7210;51.502;10.722;2023-03-23T06:07:26;98690.34;;;10.29;100.00
14253;BME280;7210;51.502;10.722;2023-03-23T06:09:58;98683.19;;;10.30;100.00
14253;BME280;7210;51.502;10.722;2023-03-23T06:12:26;98680.00;;;10.28;100.00
14253;BME280;7210;51.502;10.722;2023-03-23T06:15:00;98675.53;;;10.28;100.00
14253;BME280;7210;51.502;10.722;2023-03-23T06:17:48;98662.38;;;10.33;100.00
14253;BME280;7210;51.502;10.722;2023-03-23T06:20:17;98649.53;;;10.42;100.00
14253;BME280;7210;51.502;10.722;2023-03-23T06:22:45;98627.69;;;10.51;100.00
14253;BME280;7210;51.502;10.722;2023-03-23T06:25:26;98604.25;;;10.60;100.00
14253;BME280;7210;51.502;10.722;2023-03-23T06:27:55;98592.44;;;10.67;100.00
14253;BME280;7210;51.502;10.722;2023-03-23T06:30:25;98592.44;;;10.72;100.00
14253;BME280;7210;51.502;10.722;2023-03-23T06:32:58;98587.22;;;10.77;100.00
14253;BME280;7210;51.502;10.722;2023-03-23T06:35:46;98611.81;;;10.78;100.00
14253;BME280;7210;51.502;10.722;2023-03-23T06:38:25;98607.06;;;10.80;100.00
14253;BME280;7210;51.502;10.722;2023-03-23T06:40:55;98614.25;;;10.84;100.00
14253;BME280;7210;51.502;10.722;2023-03-23T06:43:25;98615.31;;;10.88;100.00
14253;BME280;7210;51.502;10.722;2023-03-23T06:46:04;98619.59;;;10.94;100.00
14253;BME280;7210;51.502;10.722;2023-03-23T06:48:37;98621.50;;;10.99;100.00
14253;BME280;7210;51.502;10.722;2023-03-23T06:51:06;98613.91;;;11.07;100.00
14253;BME280;7210;51.502;10.722;2023-03-23T06:53:36;98614.13;;;11.06;100.00
14253;BME280;7210;51.502;10.722;2023-03-23T06:56:06;98613.34;;;11.05;100.00
14253;BME280;7210;51.502;10.722;2023-03-23T06:58:34;98601.44;;;11.07;100.00
14253;BME280;7210;51.502;10.722;2023-03-23T07:01:05;98599.38;;;11.10;100.00
14253;BME280;7210;51.502;10.722;2023-03-23T07:03:38;98596.44;;;11.11;100.00
14253;BME280;7210;51.502;10.722;2023-03-23T07:06:08;98587.69;;;11.06;100.00
14253;BME280;7210;51.502;10.722;2023-03-23T07:08:43;98580.56;;;11.11;100.00
14253;BME280;7210;51.502;10.722;2023-03-23T07:11:15;98566.34;;;11.17;100.00
14253;BME280;7210;51.502;10.722;2023-03-23T07:13:42;98569.56;;;11.24;100.00
14253;BME280;7210;51.502;10.722;2023-03-23T07:16:11;98589.19;;;11.33;100.00
14253;BME280;7210;51.502;10.722;2023-03-23T07:18:38;98583.41;;;11.41;100.00
14253;BME280;7210;51.502;10.722;2023-03-23T07:21:06;98582.44;;;11.52;100.00
14253;BME280;7210;51.502;10.722;2023-03-23T07:23:34;98584.63;;;11.65;100.00
14253;BME280;7210;51.502;10.722;2023-03-23T07:26:05;98572.47;;;11.69;100.00
14253;BME280;7210;51.502;10.722;2023-03-23T07:28:44;98583.09;;;11.79;100.00
14253;BME280;7210;51.502;10.722;2023-03-23T07:31:25;98621.09;;;12.04;100.00
14253;BME280;7210;51.502;10.722;2023-03-23T07:33:53;98633.06;;;12.22;100.00
14253;BME280;7210;51.502;10.722;2023-03-23T07:36:26;98642.16;;;12.56;100.00
14253;BME280;7210;51.502;10.722;2023-03-23T07:38:53;98622.03;;;12.70;100.00
14253;BME280;7210;51.502;10.722;2023-03-23T07:41:21;98592.31;;;12.73;100.00
14253;BME280;7210;51.502;10.722;2023-03-23T07:43:50;98573.22;;;12.66;100.00
14253;BME280;7210;51.502;10.722;2023-03-23T07:46:28;98569.53;;;12.62;100.00
14253;BME280;7210;51.502;10.722;2023-03-23T07:49:02;98579.59;;;12.60;100.00
14253;BME280;7210;51.502;10.722;2023-03-23T07:51:36;98593.91;;;12.74;100.00
14253;BME280;7210;51.502;10.722;2023-03-23T07:54:06;98581.72;;;12.78;99.46
14253;BME280;7210;51.502;10.722;2023-03-23T07:56:52;98587.81;;;12.83;99.44
14253;BME280;7210;51.502;10.722;2023-03-23T07:59:26;98576.94;;;12.85;98.95
14253;BME280;7210;51.502;10.722;2023-03-23T08:01:58;98604.03;;;13.02;99.04
14253;BME280;7210;51.502;10.722;2023-03-23T08:04:53;98599.25;;;13.09;97.89
14253;BME280;7210;51.502;10.722;2023-03-23T08:07:42;98583.84;;;13.16;97.24
14253;BME280;7210;51.502;10.722;2023-03-23T08:10:29;98584.38;;;13.13;96.45
14253;BME280;7210;51.502;10.722;2023-03-23T08:13:34;98583.31;;;13.09;96.00
14253;BME280;7210;51.502;10.722;2023-03-23T08:16:12;98574.03;;;12.86;96.16
14253;BME280;7210;51.502;10.722;2023-03-23T08:18:54;98583.84;;;12.86;96.10
14253;BME280;7210;51.502;10.722;2023-03-23T08:21:35;98603.47;;;12.75;96.62
14253;BME280;7210;51.502;10.722;2023-03-23T08:24:20;98618.31;;;12.71;97.09
14253;BME280;7210;51.502;10.722;2023-03-23T08:27:10;98625.47;;;12.75;97.14
14253;BME280;7210;51.502;10.722;2023-03-23T08:29:49;98640.09;;;12.83;97.26
14253;BME280;7210;51.502;10.722;2023-03-23T08:32:37;98637.44;;;12.93;96.57
14253;BME280;7210;51.502;10.722;2023-03-23T08:35:24;98631.09;;;12.99;96.51
14253;BME280;7210;51.502;10.722;2023-03-23T08:38:30;98641.19;;;13.07;96.39
14253;BME280;7210;51.502;10.722;2023-03-23T08:41:16;98641.69;;;13.19;95.55
14253;BME280;7210;51.502;10.722;2023-03-23T08:43:43;98645.97;;;13.30;94.85
14253;BME280;7210;51.502;10.722;2023-03-23T08:46:31;98659.72;;;13.57;94.22
14253;BME280;7210;51.502;10.722;2023-03-23T08:49:12;98671.59;;;13.89;93.49
14253;BME280;7210;51.502;10.722;2023-03-23T08:52:09;98659.06;;;14.00;92.68
14253;BME280;7210;51.502;10.722;2023-03-23T08:54:51;98641.25;;;14.00;91.61
14253;BME280;7210;51.502;10.722;2023-03-23T08:57:34;98648.97;;;14.07;90.95
14253;BME280;7210;51.502;10.722;2023-03-23T09:00:22;98655.28;;;14.21;90.27
14253;BME280;7210;51.502;10.722;2023-03-23T09:03:13;98652.88;;;14.29;89.91
14253;BME280;7210;51.502;10.722;2023-03-23T09:05:59;98647.72;;;14.43;89.28
14253;BME280;7210;51.502;10.722;2023-03-23T09:08:37;98631.19;;;14.51;88.31
14253;BME280;7210;51.502;10.722;2023-03-23T09:11:06;98632.00;;;14.51;88.19
14253;BME280;7210;51.502;10.722;2023-03-23T09:13:35;98623.47;;;14.54;87.43
14253;BME280;7210;51.502;10.722;2023-03-23T09:16:03;98602.53;;;14.43;86.61
14253;BME280;7210;51.502;10.722;2023-03-23T09:18:31;98602.56;;;14.38;85.74
14253;BME280;7210;51.502;10.722;2023-03-23T09:20:59;98578.16;;;14.26;85.40
14253;BME280;7210;51.502;10.722;2023-03-23T09:23:27;98599.44;;;14.21;85.38
14253;BME280;7210;51.502;10.722;2023-03-23T09:26:00;98621.19;;;14.33;85.43
14253;BME280;7210;51.502;10.722;2023-03-23T09:28:28;98647.66;;;14.53;85.15
14253;BME280;7210;51.502;10.722;2023-03-23T09:30:57;98594.28;;;14.39;84.35
14253;BME280;7210;51.502;10.722;2023-03-23T09:33:25;98630.69;;;14.49;84.76
14253;BME280;7210;51.502;10.722;2023-03-23T09:35:52;98627.50;;;14.47;84.95
14253;BME280;7210;51.502;10.722;2023-03-23T09:38:20;98678.25;;;14.55;85.26
14253;BME280;7210;51.502;10.722;2023-03-23T09:40:54;98705.06;;;14.69;85.42
14253;BME280;7210;51.502;10.722;2023-03-23T09:43:49;98691.19;;;14.77;84.18
14253;BME280;7210;51.502;10.722;2023-03-23T09:46:44;98660.19;;;14.91;83.04
14253;BME280;7210;51.502;10.722;2023-03-23T09:49:19;98672.69;;;14.95;83.16
14253;BME280;7210;51.502;10.722;2023-03-23T09:51:51;98646.38;;;14.89;82.25
14253;BME280;7210;51.502;10.722;2023-03-23T09:54:24;98648.22;;;14.93;81.94
14253;BME280;7210;51.502;10.722;2023-03-23T09:56:55;98606.28;;;14.80;80.94
14253;BME280;7210;51.502;10.722;2023-03-23T09:59:34;98638.66;;;14.87;80.97
14253;BME280;7210;51.502;10.722;2023-03-23T10:02:14;98674.97;;;15.07;80.67
14253;BME280;7210;51.502;10.722;2023-03-23T10:04:46;98629.31;;;14.95;79.65
14253;BME280;7210;51.502;10.722;2023-03-23T10:07:17;98655.34;;;14.98;79.65
14253;BME280;7210;51.502;10.722;2023-03-23T10:09:48;98680.94;;;14.94;80.28
14253;BME280;7210;51.502;10.722;2023-03-23T10:12:29;98687.38;;;14.88;80.48
14253;BME280;7210;51.502;10.722;2023-03-23T10:15:11;98722.97;;;15.02;80.78
14253;BME280;7210;51.502;10.722;2023-03-23T10:17:51;98742.53;;;15.20;80.40
14253;BME280;7210;51.502;10.722;2023-03-23T10:20:32;98696.75;;;15.13;79.60
14253;BME280;7210;51.502;10.722;2023-03-23T10:23:13;98694.06;;;15.18;79.05
14253;BME280;7210;51.502;10.722;2023-03-23T10:25:48;98712.69;;;15.23;79.17
14253;BME280;7210;51.502;10.722;2023-03-23T10:28:21;98714.22;;;15.29;78.71
14253;BME280;7210;51.502;10.722;2023-03-23T10:30:55;98743.25;;;15.36;79.11
14253;BME280;7210;51.502;10.722;2023-03-23T10:33:30;98731.66;;;15.50;78.10
14253;BME280;7210;51.502;10.722;2023-03-23T10:36:05;98713.59;;;15.47;78.20
14253;BME280;7210;51.502;10.722;2023-03-23T10:38:38;98725.81;;;15.53;78.07
14253;BME280;7210;51.502;10.722;2023-03-23T10:41:11;98707.66;;;15.55;77.34
14253;BME280;7210;51.502;10.722;2023-03-23T10:43:39;98683.75;;;15.45;76.97
14253;BME280;7210;51.502;10.722;2023-03-23T10:46:22;98726.22;;;15.65;76.92
14253;BME280;7210;51.502;10.722;2023-03-23T10:48:54;98672.44;;;15.58;75.65
14253;BME280;7210;51.502;10.722;2023-03-23T10:51:31;98643.28;;;15.43;75.11
14253;BME280;7210;51.502;10.722;2023-03-23T10:54:03;98689.06;;;15.45;76.00
14253;BME280;7210;51.502;10.722;2023-03-23T10:56:37;98668.34;;;15.42;75.08
14253;BME280;7210;51.502;10.722;2023-03-23T10:59:13;98642.50;;;15.43;74.59
14253;BME280;7210;51.502;10.722;2023-03-23T11:01:48;98682.47;;;15.43;74.94
14253;BME280;7210;51.502;10.722;2023-03-23T11:04:18;98726.34;;;15.50;75.27
14253;BME280;7210;51.502;10.722;2023-03-23T11:06:49;98653.94;;;15.43;73.81
14253;BME280;7210;51.502;10.722;2023-03-23T11:09:20;98665.66;;;15.42;73.81
14253;BME280;7210;51.502;10.722;2023-03-23T11:11:51;98684.22;;;15.52;73.59
14253;BME280;7210;51.502;10.722;2023-03-23T11:14:25;98644.34;;;15.42;73.13
14253;BME280;7210;51.502;10.722;2023-03-23T11:16:56;98666.19;;;15.44;73.27
14253;BME280;7210;51.502;10.722;2023-03-23T11:19:26;98707.06;;;15.63;72.95
14253;BME280;7210;51.502;10.722;2023-03-23T11:21:57;98698.69;;;15.75;72.40
14253;BME280;7210;51.502;10.722;2023-03-23T11:24:40;98704.75;;;15.80;72.28
14253;BME280;7210;51.502;10.722;2023-03-23T11:27:10;98668.41;;;15.89;71.16
14253;BME280;7210;51.502;10.722;2023-03-23T11:29:47;98672.63;;;15.90;71.07
14253;BME280;7210;51.502;10.722;2023-03-23T11:32:17;98676.28;;;15.99;70.57
14253;BME280;7210;51.502;10.722;2023-03-23T11:34:48;98634.88;;;15.83;70.36
14253;BME280;7210;51.502;10.722;2023-03-23T11:37:29;98622.16;;;15.75;69.96
14253;BME280;7210;51.502;10.722;2023-03-23T11:40:01;98659.94;;;15.82;66.62
14253;BME280;7210;51.502;10.722;2023-03-23T11:42:38;98675.66;;;16.07;69.39
14253;BME280;7210;51.502;10.722;2023-03-23T11:45:19;98645.72;;;15.92;69.63
14253;BME280;7210;51.502;10.722;2023-03-23T11:48:11;98709.25;;;16.08;69.64
14253;BME280;7210;51.502;10.722;2023-03-23T11:50:50;98767.81;;;16.18;70.54
14253;BME280;7210;51.502;10.722;2023-03-23T11:53:32;98681.28;;;16.06;68.91
14253;BME280;7210;51.502;10.722;2023-03-23T11:56:16;98716.28;;;16.23;68.88
14253;BME280;7210;51.502;10.722;2023-03-23T11:58:45;98643.66;;;16.07;68.01
14253;BME280;7210;51.502;10.722;2023-03-23T12:01:36;98604.34;;;15.71;68.03
14253;BME280;7210;51.502;10.722;2023-03-23T12:04:32;98547.22;;;15.30;67.45
14253;BME280;7210;51.502;10.722;2023-03-23T12:07:25;98575.50;;;14.98;68.47
14253;BME280;7210;51.502;10.722;2023-03-23T12:10:09;98568.53;;;14.73;68.42
14253;BME280;7210;51.502;10.722;2023-03-23T12:12:49;98578.38;;;14.73;68.01
14253;BME280;7210;51.502;10.722;2023-03-23T12:15:25;98534.34;;;14.57;67.50
14253;BME280;7210;51.502;10.722;2023-03-23T12:18:06;98543.75;;;14.44;67.56
14253;BME280;7210;51.502;10.722;2023-03-23T12:20:52;98578.81;;;14.46;67.70
14253;BME280;7210;51.502;10.722;2023-03-23T12:23:25;98646.66;;;14.44;68.59
14253;BME280;7210;51.502;10.722;2023-03-23T12:26:17;98720.03;;;14.55;69.70
14253;BME280;7210;51.502;10.722;2023-03-23T12:35:25;98807.09;;;15.03;69.92
14253;BME280;7210;51.502;10.722;2023-03-23T12:38:13;98823.50;;;15.14;69.94
14253;BME280;7210;51.502;10.722;2023-03-23T12:40:52;98792.09;;;15.17;69.53
14253;BME280;7210;51.502;10.722;2023-03-23T12:43:30;98867.63;;;15.40;70.01
14253;BME280;7210;51.502;10.722;2023-03-23T12:49:06;98938.41;;;15.95;70.12
14253;BME280;7210;51.502;10.722;2023-03-23T12:51:43;98942.41;;;16.36;69.48
14253;BME280;7210;51.502;10.722;2023-03-23T12:54:26;98870.00;;;16.47;68.55
14253;BME280;7210;51.502;10.722;2023-03-23T12:57:00;98889.16;;;16.78;68.39
14253;BME280;7210;51.502;10.722;2023-03-23T12:59:38;98817.09;;;16.96;67.01
14253;BME280;7210;51.502;10.722;2023-03-23T13:02:18;98767.19;;;16.97;66.32
14253;BME280;7210;51.502;10.722;2023-03-23T13:04:51;98726.75;;;17.03;65.18
14253;BME280;7210;51.502;10.722;2023-03-23T13:07:27;98755.09;;;16.99;65.98
14253;BME280;7210;51.502;10.722;2023-03-23T13:10:04;98753.88;;;17.10;65.53
14253;BME280;7210;51.502;10.722;2023-03-23T13:12:35;98684.44;;;16.92;65.11
14253;BME280;7210;51.502;10.722;2023-03-23T13:15:22;98655.44;;;16.85;64.47
14253;BME280;7210;51.502;10.722;2023-03-23T13:18:08;98635.97;;;16.66;64.72
14253;BME280;7210;51.502;10.722;2023-03-23T13:20:54;98613.84;;;16.47;64.29
14253;BME280;7210;51.502;10.722;2023-03-23T13:23:26;98692.88;;;16.62;64.90
14253;BME280;7210;51.502;10.722;2023-03-23T13:26:01;98644.97;;;16.52;64.37
14253;BME280;7210;51.502;10.722;2023-03-23T13:28:47;98650.53;;;16.55;64.20
14253;BME280;7210;51.502;10.722;2023-03-23T13:31:17;98696.41;;;16.57;64.82
14253;BME280;7210;51.502;10.722;2023-03-23T13:33:53;98669.34;;;16.45;64.85
14253;BME280;7210;51.502;10.722;2023-03-23T13:36:30;98729.44;;;16.61;65.05
14253;BME280;7210;51.502;10.722;2023-03-23T13:39:01;98717.06;;;16.70;64.53
14253;BME280;7210;51.502;10.722;2023-03-23T13:41:31;98666.78;;;16.59;64.26
14253;BME280;7210;51.502;10.722;2023-03-23T13:44:16;98696.88;;;16.41;65.11
14253;BME280;7210;51.502;10.722;2023-03-23T13:46:56;98739.16;;;16.52;65.48
14253;BME280;7210;51.502;10.722;2023-03-23T13:49:24;98736.91;;;16.64;64.80
14253;BME280;7210;51.502;10.722;2023-03-23T13:52:14;98841.09;;;16.78;66.24
14253;BME280;7210;51.502;10.722;2023-03-23T13:54:45;98808.63;;;16.71;65.94
14253;BME280;7210;51.502;10.722;2023-03-23T13:57:33;98788.50;;;16.55;66.12
14253;BME280;7210;51.502;10.722;2023-03-23T14:00:33;98894.72;;;16.81;67.07
14253;BME280;7210;51.502;10.722;2023-03-23T14:03:10;98925.88;;;17.14;66.00
14253;BME280;7210;51.502;10.722;2023-03-23T14:05:42;98829.56;;;17.06;65.66